Time;durP1;ratioP1;P1;durP2;ratioP2;P2;SDS_P1;SDS_P2;PMS_P1;PMS_P2;Temp;Humidity;BMP_temperature;BMP_pressure;BME280_temperature;BME280_humidity;BME280_pressure;Samples;Min_cycle;Max_cycle;Signal;HPM_P1;HPM_P2
2022/10/14 00:01:22;;;;;;;1.25;0.77;;;;;;;20.29;45.68;100681.84;4973636;28;20468;-87
2022/10/14 00:03:48;;;;;;;1.45;0.73;;;;;;;20.29;46.15;100683.75;4973187;28;20054;-87
2022/10/14 00:06:16;;;;;;;1.67;0.70;;;;;;;20.27;46.26;100687.53;4973665;28;20055;-87
2022/10/14 00:08:41;;;;;;;2.45;0.77;;;;;;;20.29;45.66;100689.19;4973051;28;20026;-87
2022/10/14 00:11:09;;;;;;;1.38;0.70;;;;;;;20.27;45.56;100681.28;4973508;28;20029;-87
2022/10/14 00:13:35;;;;;;;2.35;0.85;;;;;;;20.29;45.32;100689.19;4973763;28;20384;-88
2022/10/14 00:16:01;;;;;;;0.93;0.70;;;;;;;20.29;45.88;100683.75;4973186;28;20113;-88
2022/10/14 00:18:27;;;;;;;1.67;0.75;;;;;;;20.28;46.33;100685.63;4956140;28;20038;-87
2022/10/14 00:20:56;;;;;;;0.88;0.70;;;;;;;20.26;46.49;100685.91;4972933;28;20408;-87
2022/10/14 00:23:22;;;;;;;1.15;0.60;;;;;;;20.26;46.44;100690.47;4973225;28;20047;-87
2022/10/14 00:25:47;;;;;;;1.27;0.80;;;;;;;20.28;45.42;100682.91;4955885;28;20447;-87
2022/10/14 00:28:13;;;;;;;0.52;0.43;;;;;;;20.30;45.43;100679.94;4956294;28;20117;-88
2022/10/14 00:30:41;;;;;;;1.00;0.65;;;;;;;20.30;45.45;100685.38;4973300;28;20114;-88
2022/10/14 00:33:07;;;;;;;1.58;0.55;;;;;;;20.29;45.74;100687.28;4955138;28;20061;-87
2022/10/14 00:35:32;;;;;;;2.45;0.60;;;;;;;20.31;45.59;100681.59;4956137;28;20034;-88
2022/10/14 00:37:58;;;;;;;2.00;0.75;;;;;;;20.29;46.59;100676.41;4973094;28;20102;-87
2022/10/14 00:40:27;;;;;;;1.98;0.80;;;;;;;20.30;45.99;100678.09;4972749;28;20022;-87
2022/10/14 00:42:52;;;;;;;3.20;0.75;;;;;;;20.23;45.70;100661.09;4972856;28;20026;-88
2022/10/14 00:45:22;;;;;;;1.70;0.63;;;;;;;20.29;46.22;100668.28;4956240;28;20045;-87
2022/10/14 00:47:48;;;;;;;1.42;0.60;;;;;;;20.25;46.22;100661.72;4957843;28;20029;-87
2022/10/14 00:50:14;;;;;;;1.63;0.60;;;;;;;20.15;45.37;100646.06;4955911;28;20027;-87
2022/10/14 00:52:39;;;;;;;1.30;0.73;;;;;;;20.31;46.58;100663.44;4960422;28;20423;-87
2022/10/14 00:55:07;;;;;;;1.85;0.63;;;;;;;20.31;46.78;100665.31;4955695;28;20431;-88
2022/10/14 00:57:33;;;;;;;3.33;0.70;;;;;;;20.30;46.27;100659.09;4955869;28;20491;-88
2022/10/14 01:00:07;;;;;;;2.95;0.70;;;;;;;20.31;45.63;100657.19;4972801;28;20062;-88
2022/10/14 01:02:33;;;;;;;1.73;0.70;;;;;;;20.32;46.13;100664.28;4939932;28;20468;-88
2022/10/14 01:04:59;;;;;;;1.10;0.63;;;;;;;20.29;45.68;100664.75;4972751;28;20125;-87
2022/10/14 01:08:03;;;;;;;1.33;0.70;;;;;;;20.29;45.43;100657.44;4972981;28;20029;-88
2022/10/14 01:10:42;;;;;;;1.95;0.70;;;;;;;20.27;45.60;100652.25;4967244;28;20034;-88
2022/10/14 01:13:25;;;;;;;2.28;0.70;;;;;;;20.29;45.50;100653.91;4938529;28;20085;-88
2022/10/14 01:16:04;;;;;;;1.42;0.65;;;;;;;20.27;45.41;100654.13;4955316;28;20073;-87
2022/10/14 01:18:42;;;;;;;2.63;0.70;;;;;;;20.29;45.69;100653.91;4947505;28;20023;-88
2022/10/14 01:21:27;;;;;;;2.63;0.60;;;;;;;20.29;45.31;100652.00;4938556;28;20026;-88
2022/10/14 01:24:16;;;;;;;2.58;0.60;;;;;;;20.30;45.64;100647.38;4954856;28;20035;-87
2022/10/14 01:27:12;;;;;;;2.58;0.98;;;;;;;20.30;45.37;100648.22;4971051;28;20068;-88
2022/10/14 01:30:02;;;;;;;1.38;0.60;;;;;;;20.29;45.54;100643.84;4970310;28;20050;-87
2022/10/14 01:32:41;;;;;;;1.20;0.60;;;;;;;20.29;46.01;100641.16;4971945;28;20031;-87
2022/10/14 01:35:32;;;;;;;1.33;0.63;;;;;;;20.25;45.60;100634.56;4958126;28;20035;-87
2022/10/14 01:38:37;;;;;;;1.55;0.68;;;;;;;20.28;45.80;100628.63;4941304;28;20093;-88
2022/10/14 01:41:26;;;;;;;2.00;0.68;;;;;;;20.29;45.58;100634.91;4873963;29;20037;-87
2022/10/14 01:43:52;;;;;;;2.22;0.80;;;;;;;20.29;46.30;100629.47;4858659;29;20064;-88
2022/10/14 01:46:18;;;;;;;1.83;0.80;;;;;;;20.28;45.76;100639.47;4907763;29;20396;-87
2022/10/14 01:48:45;;;;;;;0.90;0.70;;;;;;;20.28;46.35;100631.34;4951258;29;20502;-87
2022/10/14 01:51:13;;;;;;;0.73;0.45;;;;;;;20.31;46.04;100627.31;4935246;28;20038;-88
2022/10/14 01:53:45;;;;;;;1.27;0.70;;;;;;;20.31;46.61;100628.13;4936049;29;20054;-87
2022/10/14 01:56:11;;;;;;;1.65;0.70;;;;;;;20.29;45.84;100624.84;4935376;29;20093;-87
2022/10/14 01:58:37;;;;;;;1.65;0.70;;;;;;;20.30;47.05;100621.09;4952127;29;20500;-88
2022/10/14 02:01:03;;;;;;;1.60;0.75;;;;;;;20.29;46.33;100614.00;4935427;29;20388;-87
2022/10/14 02:03:58;;;;;;;1.15;0.60;;;;;;;20.31;45.53;100617.28;4935952;29;20042;-88
2022/10/14 02:06:36;;;;;;;2.00;0.68;;;;;;;20.27;45.42;100608.81;4935326;29;20413;-87
2022/10/14 02:09:10;;;;;;;1.65;0.60;;;;;;;20.30;46.18;100612.94;4934041;29;20043;-87
2022/10/14 02:11:54;;;;;;;2.05;0.45;;;;;;;20.29;46.20;100608.56;4951988;29;20088;-87
2022/10/14 02:14:56;;;;;;;2.10;0.70;;;;;;;20.31;46.08;100611.84;4936321;29;20118;-87
2022/10/14 02:17:30;;;;;;;1.02;0.47;;;;;;;20.30;45.85;100607.50;4929894;29;20043;-87
2022/10/14 02:19:57;;;;;;;0.55;0.47;;;;;;;20.30;46.54;100604.81;4951237;29;20065;-88
2022/10/14 02:23:07;;;;;;;2.25;0.65;;;;;;;20.31;45.67;100601.00;4934755;29;20082;-88
2022/10/14 02:25:38;;;;;;;0.80;0.60;;;;;;;20.27;45.66;100610.72;4942569;29;20032;-87
2022/10/14 02:28:03;;;;;;;1.58;0.65;;;;;;;20.21;46.36;100592.69;4926919;29;20033;-87
2022/10/14 02:30:31;;;;;;;0.70;0.50;;;;;;;20.13;45.90;100582.25;4920453;29;20035;-88
2022/10/14 02:32:58;;;;;;;2.47;0.85;;;;;;;20.29;46.27;100600.44;4918392;29;20035;-87
2022/10/14 02:35:24;;;;;;;1.50;0.82;;;;;;;20.21;46.62;100579.97;4905089;29;20114;-87
2022/10/14 02:37:49;;;;;;;1.10;0.70;;;;;;;20.25;45.42;100593.88;4902880;29;20047;-88
2022/10/14 02:40:42;;;;;;;1.92;0.70;;;;;;;20.11;45.54;100570.81;4902543;29;20030;-87
2022/10/14 02:43:09;;;;;;;1.58;0.80;;;;;;;20.21;46.62;100579.97;4916990;28;20093;-87
2022/10/14 02:45:39;;;;;;;1.52;0.57;;;;;;;20.10;46.80;100563.78;4952860;28;21043;-88
2022/10/14 02:48:05;;;;;;;1.73;0.63;;;;;;;20.20;46.81;100577.50;4953320;28;20108;-87
2022/10/14 02:50:31;;;;;;;2.45;0.75;;;;;;;20.28;47.07;100590.63;4952501;28;20606;-87
2022/10/14 02:52:56;;;;;;;1.10;0.55;;;;;;;20.21;46.18;100569.13;4923675;28;20035;-87
2022/10/14 02:55:22;;;;;;;1.52;0.63;;;;;;;20.12;45.87;100564.34;4938710;28;20034;-87
2022/10/14 02:57:47;;;;;;;2.92;0.70;;;;;;;20.15;46.40;100566.56;4938467;28;20038;-87
2022/10/14 03:00:14;;;;;;;2.33;0.65;;;;;;;20.26;46.19;100581.94;4938534;28;20077;-88
2022/10/14 03:02:40;;;;;;;1.45;0.70;;;;;;;20.05;46.45;100542.78;4936631;28;20035;-88
2022/10/14 03:05:06;;;;;;;1.42;0.70;;;;;;;20.20;46.30;100574.78;4953744;28;20027;-88
2022/10/14 03:07:32;;;;;;;1.88;0.50;;;;;;;20.19;46.30;100582.09;4937832;28;20085;-87
2022/10/14 03:09:58;;;;;;;1.50;0.70;;;;;;;20.30;46.54;100588.53;4954344;28;20030;-88
2022/10/14 03:12:24;;;;;;;1.20;0.60;;;;;;;20.31;46.16;100583.91;4970377;28;20031;-87
2022/10/14 03:14:50;;;;;;;1.65;0.85;;;;;;;20.31;46.04;100582.00;4970486;28;20259;-87
2022/10/14 03:17:15;;;;;;;1.17;0.68;;;;;;;20.32;46.86;100580.94;4970375;28;20567;-87
2022/10/14 03:19:41;;;;;;;1.90;0.70;;;;;;;20.30;46.76;100579.53;4970673;28;20106;-87
2022/10/14 03:22:07;;;;;;;0.88;0.57;;;;;;;20.31;46.53;100583.91;4968009;28;20027;-87
2022/10/14 03:24:32;;;;;;;2.45;0.70;;;;;;;20.31;47.42;100579.28;4971010;28;20066;-87
2022/10/14 03:26:58;;;;;;;1.92;0.52;;;;;;;20.31;47.18;100571.16;4970311;28;20520;-87
2022/10/14 03:29:24;;;;;;;1.23;0.63;;;;;;;20.32;46.02;100569.28;4968926;28;20516;-87
2022/10/14 03:31:49;;;;;;;1.60;0.60;;;;;;;20.31;47.18;100565.72;4970663;28;20039;-87
2022/10/14 03:34:15;;;;;;;1.58;0.80;;;;;;;20.30;45.97;100566.81;4969647;28;20035;-87
2022/10/14 03:36:41;;;;;;;1.13;0.60;;;;;;;20.32;46.80;100569.28;4970549;28;20034;-87
2022/10/14 03:39:06;;;;;;;1.17;0.70;;;;;;;20.32;45.95;100564.66;4969824;28;21009;-87
2022/10/14 03:41:32;;;;;;;1.60;0.63;;;;;;;20.30;46.63;100564.09;4953534;28;20511;-87
2022/10/14 03:43:57;;;;;;;2.63;0.70;;;;;;;20.31;46.92;100568.44;4952471;28;20047;-87
2022/10/14 03:46:23;;;;;;;1.73;0.85;;;;;;;20.27;47.36;100553.72;4969344;28;20053;-87
2022/10/14 03:48:49;;;;;;;1.80;0.77;;;;;;;20.31;46.52;100559.47;4952774;28;20499;-87
2022/10/14 03:51:14;;;;;;;2.50;0.70;;;;;;;20.30;47.20;100561.38;4969744;28;20166;-87
2022/10/14 03:53:40;;;;;;;1.67;0.88;;;;;;;20.30;46.64;100560.53;4953191;28;20355;-87
2022/10/14 03:56:06;;;;;;;1.75;0.80;;;;;;;20.31;46.59;100557.56;4952824;28;20031;-87
2022/10/14 03:58:32;;;;;;;3.15;0.88;;;;;;;20.26;45.77;100543.94;4969276;28;20145;-87
2022/10/14 04:00:57;;;;;;;1.30;0.65;;;;;;;20.30;45.64;100547.81;4970258;28;20035;-87
2022/10/14 04:03:23;;;;;;;1.00;0.70;;;;;;;20.32;46.29;100555.72;4937667;28;20037;-88
2022/10/14 04:05:48;;;;;;;1.58;0.70;;;;;;;20.31;46.09;100552.16;4970296;28;20035;-87
2022/10/14 04:08:14;;;;;;;0.80;0.68;;;;;;;20.30;47.19;100550.53;4970305;28;20097;-87
2022/10/14 04:10:40;;;;;;;2.08;0.60;;;;;;;20.31;46.44;100543.19;4952737;28;20492;-87
2022/10/14 04:13:05;;;;;;;1.13;0.77;;;;;;;20.31;46.14;100545.91;4970068;28;20094;-87
2022/10/14 04:15:31;;;;;;;1.77;0.75;;;;;;;20.29;45.66;100553.47;4969374;28;20561;-87
2022/10/14 04:17:56;;;;;;;3.08;0.90;;;;;;;20.29;47.07;100540.72;4970129;28;20037;-87
2022/10/14 04:20:22;;;;;;;1.30;0.70;;;;;;;20.30;47.52;100552.41;4969838;28;20547;-87
2022/10/14 04:22:48;;;;;;;1.75;0.95;;;;;;;20.30;46.32;100545.09;4969373;28;20026;-87
2022/10/14 04:25:13;;;;;;;1.25;0.70;;;;;;;20.30;46.66;100527.97;4969653;28;20046;-87
2022/10/14 04:27:39;;;;;;;1.42;0.47;;;;;;;20.31;46.67;100540.47;4969364;28;20090;-87
2022/10/14 04:30:05;;;;;;;1.83;0.70;;;;;;;20.29;46.23;100532.59;4953494;28;20464;-87
2022/10/14 04:32:31;;;;;;;1.17;0.65;;;;;;;20.27;46.96;100532.84;4953862;28;20026;-87
2022/10/14 04:34:57;;;;;;;2.03;0.68;;;;;;;20.29;47.03;100543.44;4973164;28;20118;-87
2022/10/14 04:37:22;;;;;;;1.77;0.85;;;;;;;20.31;46.68;100540.47;4973276;28;20407;-87
2022/10/14 04:39:48;;;;;;;2.95;0.70;;;;;;;20.29;47.52;100535.31;4956630;28;20387;-87
2022/10/14 04:42:14;;;;;;;1.13;0.60;;;;;;;20.31;46.97;100535.06;4973059;28;20027;-87
2022/10/14 04:44:39;;;;;;;1.15;0.65;;;;;;;20.30;47.55;100534.25;4972923;28;20038;-87
2022/10/14 04:47:05;;;;;;;1.45;0.82;;;;;;;20.30;47.69;100539.66;4972769;28;20023;-87
2022/10/14 04:49:31;;;;;;;1.27;0.68;;;;;;;20.29;47.08;100535.31;4973386;28;20064;-87
2022/10/14 04:51:59;;;;;;;1.40;0.73;;;;;;;20.28;46.09;100530.94;4958372;28;20036;-88
2022/10/14 04:54:25;;;;;;;2.03;0.70;;;;;;;20.18;47.00;100506.34;4955963;28;20480;-87
2022/10/14 04:56:51;;;;;;;1.55;0.70;;;;;;;20.29;47.18;100527.16;4955574;28;20061;-87
2022/10/14 04:59:16;;;;;;;1.33;0.70;;;;;;;20.29;47.29;100521.72;4972631;28;20146;-87
2022/10/14 05:01:42;;;;;;;1.85;1.00;;;;;;;20.29;46.46;100516.31;4972961;28;20031;-87
2022/10/14 05:04:07;;;;;;;1.10;0.70;;;;;;;20.29;47.40;100516.31;4972330;28;20396;-87
2022/10/14 05:06:34;;;;;;;1.10;0.80;;;;;;;20.29;47.11;100521.72;4972552;28;20092;-87
2022/10/14 05:08:59;;;;;;;1.08;0.65;;;;;;;20.25;47.13;100509.75;4954990;28;20134;-87
2022/10/14 05:11:25;;;;;;;0.98;0.70;;;;;;;20.30;47.19;100520.66;4955395;28;20035;-88
2022/10/14 05:13:51;;;;;;;0.98;0.57;;;;;;;20.30;46.67;100517.13;4970938;28;20031;-87
2022/10/14 05:16:17;;;;;;;1.52;0.70;;;;;;;20.25;46.30;100507.03;4972096;28;20037;-87
2022/10/14 05:18:42;;;;;;;1.92;0.88;;;;;;;20.25;46.29;100505.13;4972299;28;20035;-88
2022/10/14 05:21:08;;;;;;;1.55;0.60;;;;;;;20.30;46.90;100511.69;4972112;28;20030;-87
2022/10/14 05:23:34;;;;;;;1.58;0.70;;;;;;;20.28;47.07;100509.22;4972180;28;20030;-87
2022/10/14 05:25:59;;;;;;;1.45;0.75;;;;;;;20.30;46.66;100507.09;4972029;28;20113;-87
2022/10/14 05:28:25;;;;;;;1.20;0.80;;;;;;;20.27;46.46;100507.59;4972198;28;20030;-87
2022/10/14 05:30:51;;;;;;;2.05;0.73;;;;;;;20.30;46.56;100514.41;4954900;28;20023;-87
2022/10/14 05:33:16;;;;;;;2.17;1.00;;;;;;;20.30;46.85;100506.25;4971855;28;20037;-87
2022/10/14 05:35:43;;;;;;;2.78;0.80;;;;;;;20.30;47.22;100507.09;4940094;28;20023;-88
2022/10/14 05:38:08;;;;;;;1.00;0.90;;;;;;;20.29;47.33;100510.88;4955020;28;20431;-87
2022/10/14 05:40:34;;;;;;;1.30;0.50;;;;;;;20.29;47.11;100513.59;4971743;28;20019;-87
2022/10/14 05:43:00;;;;;;;1.63;1.00;;;;;;;20.26;46.43;100509.50;4956424;28;20496;-87
2022/10/14 05:45:25;;;;;;;1.20;0.73;;;;;;;20.30;46.90;100514.41;4970961;28;20049;-87
2022/10/14 05:47:51;;;;;;;1.63;0.80;;;;;;;20.30;46.27;100512.53;4971838;28;20034;-87
2022/10/14 05:50:17;;;;;;;0.73;0.70;;;;;;;20.30;47.07;100506.25;4972109;28;20039;-87
2022/10/14 05:52:42;;;;;;;2.15;0.75;;;;;;;20.28;46.53;100506.50;4971264;28;20041;-88
2022/10/14 05:55:08;;;;;;;2.50;0.70;;;;;;;20.28;46.81;100511.94;4971819;28;20069;-87
2022/10/14 05:57:34;;;;;;;1.55;0.82;;;;;;;20.29;46.34;100508.16;4954386;28;20027;-87
2022/10/14 06:00:00;;;;;;;2.03;0.70;;;;;;;20.31;46.58;100507.91;4971892;28;20109;-87
2022/10/14 06:02:25;;;;;;;1.50;0.90;;;;;;;20.29;47.01;100510.88;4954436;28;20038;-87
2022/10/14 06:04:51;;;;;;;2.03;0.82;;;;;;;20.29;46.66;100510.88;4954608;28;20033;-87
2022/10/14 06:07:17;;;;;;;2.22;0.90;;;;;;;20.29;46.91;100502.72;4971631;28;20526;-87
2022/10/14 06:09:43;;;;;;;1.40;0.90;;;;;;;20.29;47.54;100505.44;4971094;28;20512;-87
2022/10/14 06:12:08;;;;;;;2.83;0.82;;;;;;;20.26;47.31;100505.94;4971492;28;20061;-87
2022/10/14 06:14:35;;;;;;;1.33;0.70;;;;;;;20.28;47.23;100509.22;4954206;28;20073;-87
2022/10/14 06:17:01;;;;;;;1.60;0.80;;;;;;;20.30;47.06;100507.09;4954356;28;20027;-87
2022/10/14 06:19:27;;;;;;;2.20;0.85;;;;;;;20.25;46.91;100505.13;4971380;28;20387;-87
2022/10/14 06:21:53;;;;;;;1.23;0.60;;;;;;;20.28;46.89;100503.78;4971094;28;20596;-87
2022/10/14 06:24:18;;;;;;;1.48;0.88;;;;;;;20.30;47.05;100512.53;4955461;28;20031;-87
2022/10/14 06:26:44;;;;;;;2.17;0.70;;;;;;;20.27;47.21;100505.69;4953980;28;20459;-87
2022/10/14 06:29:10;;;;;;;2.50;0.90;;;;;;;20.29;47.47;100504.63;4937659;28;20432;-87
2022/10/14 06:31:36;;;;;;;1.63;0.80;;;;;;;20.30;47.39;100501.69;4954293;28;20029;-87
2022/10/14 06:34:04;;;;;;;1.65;0.88;;;;;;;20.30;47.14;100504.38;4971086;28;20019;-88
2022/10/14 06:36:30;;;;;;;1.42;0.82;;;;;;;20.30;47.12;100507.09;4970938;28;20030;-87
2022/10/14 06:38:55;;;;;;;1.75;0.90;;;;;;;20.21;47.35;100484.16;4970719;28;20460;-87
2022/10/14 06:41:21;;;;;;;1.40;0.80;;;;;;;20.31;47.18;100497.88;4971070;28;20022;-88
2022/10/14 06:43:47;;;;;;;2.33;0.93;;;;;;;20.28;47.33;100498.38;4970694;28;20051;-87
2022/10/14 06:46:12;;;;;;;1.73;0.70;;;;;;;20.28;46.77;100492.94;4970728;28;20034;-87
2022/10/14 06:48:38;;;;;;;2.70;1.00;;;;;;;20.31;46.59;100497.88;4950770;28;20102;-87
2022/10/14 06:51:04;;;;;;;2.03;0.90;;;;;;;20.28;46.74;100495.66;4970763;28;20034;-87
2022/10/14 06:53:31;;;;;;;2.20;0.88;;;;;;;20.29;46.25;100504.63;4953938;28;20408;-87
2022/10/14 06:56:02;;;;;;;2.30;0.90;;;;;;;20.30;47.58;100507.09;4951314;28;20024;-87
2022/10/14 06:58:28;;;;;;;2.60;0.90;;;;;;;20.30;47.39;100501.69;4970363;28;20034;-87
2022/10/14 07:00:53;;;;;;;1.23;0.80;;;;;;;20.26;46.79;100489.66;4971252;28;20035;-87
2022/10/14 07:03:19;;;;;;;1.95;0.88;;;;;;;20.30;47.93;100507.09;4952945;28;20029;-87
2022/10/14 07:05:45;;;;;;;2.22;0.90;;;;;;;20.27;47.85;100496.75;4970682;28;20034;-87
2022/10/14 07:08:10;;;;;;;2.05;0.88;;;;;;;20.30;47.04;100501.69;4970841;28;20031;-86
2022/10/14 07:10:36;;;;;;;1.40;1.00;;;;;;;20.30;47.66;100501.69;4939166;28;20372;-86
2022/10/14 07:13:02;;;;;;;1.10;0.80;;;;;;;20.30;47.94;100500.84;4970538;28;20031;-86
2022/10/14 07:15:28;;;;;;;1.25;1.00;;;;;;;20.30;47.30;100495.41;4953819;28;20031;-86
2022/10/14 07:17:53;;;;;;;1.50;1.05;;;;;;;20.28;46.81;100487.50;4937154;28;20524;-86
2022/10/14 07:20:19;;;;;;;1.85;0.80;;;;;;;20.26;46.67;100489.66;4953211;28;20035;-86
2022/10/14 07:22:44;;;;;;;1.27;0.90;;;;;;;20.29;47.38;100489.16;4956209;28;20389;-87
2022/10/14 07:25:10;;;;;;;1.33;0.98;;;;;;;20.28;47.54;100490.22;4970484;28;20035;-87
2022/10/14 07:27:36;;;;;;;1.55;0.70;;;;;;;20.31;47.40;100488.91;4953516;28;20027;-87
2022/10/14 07:30:02;;;;;;;1.58;0.93;;;;;;;20.28;46.70;100484.78;4954468;28;20078;-87
2022/10/14 07:32:27;;;;;;;2.47;1.10;;;;;;;20.25;46.96;100483.41;4952896;28;20049;-87
2022/10/14 07:34:53;;;;;;;1.30;0.93;;;;;;;20.27;47.32;100480.47;4953188;28;20027;-87
2022/10/14 07:37:19;;;;;;;1.65;0.93;;;;;;;20.30;47.05;100485.41;4939355;28;20025;-86
2022/10/14 07:39:44;;;;;;;1.05;0.80;;;;;;;20.28;47.63;100482.06;4969709;28;20110;-87
2022/10/14 07:42:10;;;;;;;0.85;0.70;;;;;;;20.29;48.13;100483.75;4954995;28;20480;-87
2022/10/14 07:44:38;;;;;;;1.92;1.00;;;;;;;20.31;47.76;100481.59;4949662;28;20043;-87
2022/10/14 07:47:04;;;;;;;1.13;0.82;;;;;;;20.32;47.41;100485.16;4950886;28;20089;-87
2022/10/14 07:49:30;;;;;;;1.90;0.82;;;;;;;20.23;47.85;100479.28;4951007;28;20476;-87
2022/10/14 07:51:56;;;;;;;1.35;0.88;;;;;;;20.31;47.39;100497.88;4958900;28;20039;-86
2022/10/14 07:54:22;;;;;;;3.38;0.98;;;;;;;20.30;48.10;100496.25;4950940;28;20573;-87
2022/10/14 07:56:48;;;;;;;2.20;0.90;;;;;;;20.31;47.84;100492.44;4949136;29;20071;-87
2022/10/14 07:59:14;;;;;;;1.73;0.85;;;;;;;20.33;47.20;100494.91;4949180;29;20029;-86
2022/10/14 08:01:41;;;;;;;2.92;1.10;;;;;;;20.32;47.09;100494.09;4965606;28;20114;-87
2022/10/14 08:04:07;;;;;;;1.65;1.00;;;;;;;20.31;47.10;100478.88;4957397;28;20085;-87
2022/10/14 08:06:36;;;;;;;1.83;1.05;;;;;;;20.32;46.95;100488.66;4955442;28;20078;-87
2022/10/14 08:09:04;;;;;;;1.83;0.90;;;;;;;20.30;47.95;100485.41;4952916;29;20031;-87
2022/10/14 08:11:29;;;;;;;1.83;1.08;;;;;;;20.31;47.44;100486.19;4937358;29;20054;-87
2022/10/14 08:13:56;;;;;;;1.77;0.90;;;;;;;20.25;47.71;100472.56;4953155;29;20492;-87
2022/10/14 08:16:23;;;;;;;1.55;1.13;;;;;;;20.31;46.87;100476.16;4953903;28;20421;-87
2022/10/14 08:18:49;;;;;;;1.90;0.95;;;;;;;20.32;47.09;100477.00;4934954;29;20039;-87
2022/10/14 08:21:15;;;;;;;2.20;1.02;;;;;;;20.32;47.76;100477.81;4953975;29;20035;-87
2022/10/14 08:23:41;;;;;;;2.60;1.10;;;;;;;20.34;47.44;100483.00;4949628;29;20020;-88
2022/10/14 08:26:32;;;;;;;1.63;1.00;;;;;;;20.34;46.82;100475.66;4954298;28;20118;-87
2022/10/14 08:29:00;;;;;;;2.10;1.00;;;;;;;20.31;47.88;100476.16;4953770;28;20038;-87
2022/10/14 08:31:25;;;;;;;2.20;1.10;;;;;;;20.33;47.16;100475.91;4954007;28;20042;-87
2022/10/14 08:33:51;;;;;;;2.90;1.20;;;;;;;20.31;48.08;100481.59;4950925;29;20035;-87
2022/10/14 08:36:17;;;;;;;2.38;1.00;;;;;;;20.33;47.48;100474.00;4954099;28;20035;-87
2022/10/14 08:38:43;;;;;;;1.58;1.05;;;;;;;20.33;48.18;100484.88;4952556;28;20034;-87
2022/10/14 08:41:11;;;;;;;2.63;1.10;;;;;;;20.33;47.75;100479.44;4953917;28;20110;-87
2022/10/14 08:43:47;;;;;;;1.98;1.00;;;;;;;20.30;47.59;100473.69;4952244;29;20126;-86
2022/10/14 08:46:40;;;;;;;1.58;0.93;;;;;;;20.34;47.11;100481.09;4959654;28;20027;-87
2022/10/14 08:49:27;;;;;;;1.42;1.00;;;;;;;20.34;46.95;100472.13;4952739;29;20023;-87
2022/10/14 08:52:06;;;;;;;1.42;1.17;;;;;;;20.32;47.18;100472.38;4953373;29;20555;-86
2022/10/14 08:54:43;;;;;;;3.70;1.42;;;;;;;20.33;46.96;100474.00;4953667;28;20506;-87
2022/10/14 08:57:15;;;;;;;1.95;1.15;;;;;;;20.35;47.51;100471.88;4951982;29;20061;-87
2022/10/14 08:59:41;;;;;;;2.33;1.23;;;;;;;20.33;47.42;100468.59;4936862;29;20027;-87
2022/10/14 09:02:21;;;;;;;2.20;1.30;;;;;;;20.34;46.78;100474.84;4953703;29;20027;-87
2022/10/14 09:04:47;;;;;;;1.85;1.13;;;;;;;20.30;46.78;100462.84;4953134;28;20031;-87
2022/10/14 09:07:15;;;;;;;2.15;1.25;;;;;;;20.32;47.40;100466.16;4952145;29;20101;-87
2022/10/14 09:09:43;;;;;;;4.22;1.40;;;;;;;20.35;47.30;100471.06;4953043;28;20023;-87
2022/10/14 09:12:17;;;;;;;2.42;1.35;;;;;;;20.29;46.98;100453.06;4953562;28;20031;-87
2022/10/14 09:14:45;;;;;;;2.05;1.08;;;;;;;20.35;48.05;100469.19;4952188;29;20023;-87
2022/10/14 09:17:13;;;;;;;3.50;1.73;;;;;;;20.32;48.28;100466.97;4952810;29;20039;-87
2022/10/14 09:19:45;;;;;;;1.98;1.30;;;;;;;20.34;46.89;100464.00;4951754;28;20086;-87
2022/10/14 09:22:13;;;;;;;2.67;1.48;;;;;;;20.32;47.10;100455.28;4952768;28;20083;-87
2022/10/14 09:24:39;;;;;;;2.78;1.65;;;;;;;20.36;47.55;100461.84;4951922;29;20551;-87
2022/10/14 09:27:08;;;;;;;2.17;1.20;;;;;;;20.34;47.47;100458.56;4953190;28;20045;-87
2022/10/14 09:29:56;;;;;;;1.50;0.95;;;;;;;20.36;47.25;100457.22;4952941;28;20030;-87
2022/10/14 09:32:29;;;;;;;2.67;1.25;;;;;;;20.36;47.32;100456.41;4951881;29;20042;-87
2022/10/14 09:34:56;;;;;;;2.08;1.27;;;;;;;20.32;47.85;100460.72;4952805;28;20023;-87
2022/10/14 09:37:25;;;;;;;3.05;1.60;;;;;;;20.34;47.46;100455.84;4967653;28;20039;-87
2022/10/14 09:39:51;;;;;;;1.67;1.40;;;;;;;20.36;47.28;100456.41;4952554;28;20027;-87
2022/10/14 09:42:19;;;;;;;1.83;1.20;;;;;;;20.32;47.47;100447.97;4947800;29;20535;-87
2022/10/14 09:45:01;;;;;;;2.08;1.40;;;;;;;20.35;47.61;100458.31;4935652;29;20060;-86
2022/10/14 09:47:28;;;;;;;3.78;1.27;;;;;;;20.33;47.90;100446.06;4936129;29;20028;-86
2022/10/14 09:49:54;;;;;;;2.72;1.60;;;;;;;20.33;47.76;100449.59;4952679;28;20039;-87
2022/10/14 09:52:21;;;;;;;2.00;1.25;;;;;;;20.35;47.79;100450.19;4957684;28;20023;-87
2022/10/14 09:54:55;;;;;;;2.70;1.40;;;;;;;20.37;47.75;100442.59;4950480;29;20035;-87
2022/10/14 09:57:20;;;;;;;2.25;1.42;;;;;;;20.35;47.24;100444.75;4951817;28;20103;-86
2022/10/14 10:00:05;;;;;;;3.80;1.40;;;;;;;20.38;47.43;100449.66;4952680;28;20043;-87
2022/10/14 10:02:40;;;;;;;3.72;1.50;;;;;;;20.38;48.16;100438.00;4951011;29;20035;-87
2022/10/14 10:05:30;;;;;;;2.42;1.10;;;;;;;20.36;47.66;100443.66;4950788;29;20029;-87
2022/10/14 10:08:00;;;;;;;3.97;1.67;;;;;;;20.37;47.43;100445.31;4952264;28;20031;-86
2022/10/14 10:10:29;;;;;;;2.55;1.60;;;;;;;20.35;48.81;100433.91;4951870;28;20050;-87
2022/10/14 10:12:55;;;;;;;1.83;1.10;;;;;;;20.36;47.24;100438.22;4954202;28;20031;-87
2022/10/14 10:15:21;;;;;;;2.97;1.42;;;;;;;20.37;48.43;100431.75;4951907;28;20031;-87
2022/10/14 10:17:49;;;;;;;3.08;1.50;;;;;;;20.36;47.61;100435.53;4952216;28;20356;-86
2022/10/14 10:20:17;;;;;;;4.47;1.65;;;;;;;20.39;47.49;100426.06;4952431;28;20042;-87
2022/10/14 10:22:43;;;;;;;2.45;1.60;;;;;;;20.37;48.20;100428.19;4951721;28;20023;-87
2022/10/14 10:25:18;;;;;;;1.95;1.40;;;;;;;20.36;47.38;100427.38;4952395;28;20512;-87
2022/10/14 10:27:45;;;;;;;2.30;1.50;;;;;;;20.38;47.71;100422.50;4966274;28;20023;-87
2022/10/14 10:30:17;;;;;;;2.40;1.30;;;;;;;20.38;48.09;100425.22;4948269;28;20031;-86
2022/10/14 10:32:45;;;;;;;2.33;1.33;;;;;;;20.39;47.43;100420.63;4952162;28;20027;-87
2022/10/14 10:35:16;;;;;;;1.67;1.10;;;;;;;20.40;48.26;100420.41;4951777;29;20499;-86
2022/10/14 10:38:08;;;;;;;2.17;1.20;;;;;;;20.40;47.59;100420.41;4966459;28;20262;-86
2022/10/14 10:41:06;;;;;;;2.35;1.38;;;;;;;20.39;47.55;100420.63;4951283;28;20043;-87
2022/10/14 10:43:48;;;;;;;1.67;1.40;;;;;;;20.39;47.59;100416.03;4949834;28;20092;-87
2022/10/14 10:46:30;;;;;;;2.90;1.30;;;;;;;20.36;47.50;100418.41;4951783;28;20148;-86
2022/10/14 10:49:14;;;;;;;2.38;1.20;;;;;;;20.36;47.46;100413.81;4953592;28;20039;-87
2022/10/14 10:52:01;;;;;;;1.55;1.25;;;;;;;20.40;47.19;100414.97;4939548;28;20035;-87
2022/10/14 10:54:45;;;;;;;2.25;1.33;;;;;;;20.40;47.38;100412.25;4951335;28;20034;-87
2022/10/14 10:57:29;;;;;;;1.42;1.17;;;;;;;20.41;47.43;100421.19;4970771;28;20030;-87
2022/10/14 11:00:04;;;;;;;2.07;1.33;;;;;;;20.40;48.46;100417.69;4954991;28;20039;-87
2022/10/14 11:02:55;;;;;;;1.83;1.40;;;;;;;20.40;47.55;100419.56;4953627;28;20272;-87
2022/10/14 11:05:41;;;;;;;1.77;1.50;;;;;;;20.40;47.76;100412.25;4952841;28;20030;-86
2022/10/14 11:14:18;;;;;;;1.42;1.10;;;;;;;20.42;47.65;100414.69;4956123;28;20491;-86
2022/10/14 11:16:52;;;;;;;1.50;1.30;;;;;;;20.41;48.10;100410.34;4970105;28;20174;-86
2022/10/14 11:19:30;;;;;;;2.30;1.50;;;;;;;20.41;47.77;100416.59;4970782;28;20023;-87
2022/10/14 11:22:37;;;;;;;2.85;1.58;;;;;;;20.39;47.44;100417.94;4954373;28;20511;-86
2022/10/14 11:25:18;;;;;;;3.80;1.52;;;;;;;20.42;47.65;100418.25;4954130;28;20069;-86
2022/10/14 11:27:47;;;;;;;2.55;1.23;;;;;;;20.42;47.82;100409.25;4970223;28;20030;-86
2022/10/14 11:30:18;;;;;;;1.85;1.38;;;;;;;20.43;47.41;100419.06;4968531;28;20101;-86
2022/10/14 11:33:05;;;;;;;2.30;1.30;;;;;;;20.41;47.56;100411.16;4970188;28;20031;-86
2022/10/14 11:36:06;;;;;;;2.13;1.30;;;;;;;20.41;47.48;100419.31;4968602;28;20387;-86
2022/10/14 11:38:42;;;;;;;1.85;1.20;;;;;;;20.41;47.82;100411.16;4959726;28;20381;-86
2022/10/14 11:41:10;;;;;;;1.73;1.58;;;;;;;20.42;47.47;100412.81;4955020;28;20043;-86
2022/10/14 11:44:00;;;;;;;1.60;1.30;;;;;;;20.40;47.49;100412.25;4973944;28;20050;-86